sensor_id;sensor_type;location;lat;lon;timestamp;temperature;humidity
81321;DHT22;70785;52.570;5.638;2024-03-25T00:00:14;5.80;73.50
81321;DHT22;70785;52.570;5.638;2024-03-25T00:02:41;5.70;73.60
81321;DHT22;70785;52.570;5.638;2024-03-25T00:05:08;5.70;73.60
81321;DHT22;70785;52.570;5.638;2024-03-25T00:07:38;5.60;73.60
81321;DHT22;70785;52.570;5.638;2024-03-25T00:10:05;5.60;73.60
81321;DHT22;70785;52.570;5.638;2024-03-25T00:12:35;5.60;73.50
81321;DHT22;70785;52.570;5.638;2024-03-25T00:15:01;5.60;73.50
81321;DHT22;70785;52.570;5.638;2024-03-25T00:17:27;5.60;73.50
81321;DHT22;70785;52.570;5.638;2024-03-25T00:19:53;5.50;73.60
81321;DHT22;70785;52.570;5.638;2024-03-25T00:22:20;5.50;73.60
81321;DHT22;70785;52.570;5.638;2024-03-25T00:24:47;5.50;73.60
81321;DHT22;70785;52.570;5.638;2024-03-25T00:27:14;5.50;73.70
81321;DHT22;70785;52.570;5.638;2024-03-25T00:29:40;5.50;73.80
81321;DHT22;70785;52.570;5.638;2024-03-25T00:32:07;5.60;73.70
81321;DHT22;70785;52.570;5.638;2024-03-25T00:34:33;5.60;73.70
81321;DHT22;70785;52.570;5.638;2024-03-25T00:37:00;5.60;73.70
81321;DHT22;70785;52.570;5.638;2024-03-25T00:39:27;5.70;73.70
81321;DHT22;70785;52.570;5.638;2024-03-25T00:41:54;5.70;73.60
81321;DHT22;70785;52.570;5.638;2024-03-25T00:44:20;5.70;73.70
81321;DHT22;70785;52.570;5.638;2024-03-25T00:46:46;5.70;73.80
81321;DHT22;70785;52.570;5.638;2024-03-25T00:49:12;5.70;73.80
81321;DHT22;70785;52.570;5.638;2024-03-25T00:51:39;5.70;73.90
81321;DHT22;70785;52.570;5.638;2024-03-25T00:54:05;5.60;73.70
81321;DHT22;70785;52.570;5.638;2024-03-25T00:56:31;5.60;73.50
81321;DHT22;70785;52.570;5.638;2024-03-25T00:58:57;5.70;73.20
81321;DHT22;70785;52.570;5.638;2024-03-25T01:01:29;5.60;73.00
81321;DHT22;70785;52.570;5.638;2024-03-25T01:03:56;5.60;72.90
81321;DHT22;70785;52.570;5.638;2024-03-25T01:06:22;5.60;72.90
81321;DHT22;70785;52.570;5.638;2024-03-25T01:08:49;5.50;72.80
81321;DHT22;70785;52.570;5.638;2024-03-25T01:11:15;5.50;72.90
81321;DHT22;70785;52.570;5.638;2024-03-25T01:13:41;5.50;72.90
81321;DHT22;70785;52.570;5.638;2024-03-25T01:16:08;5.50;72.90
81321;DHT22;70785;52.570;5.638;2024-03-25T01:18:34;5.40;73.00
81321;DHT22;70785;52.570;5.638;2024-03-25T01:21:00;5.30;73.00
81321;DHT22;70785;52.570;5.638;2024-03-25T01:23:26;5.30;73.20
81321;DHT22;70785;52.570;5.638;2024-03-25T01:25:52;5.40;73.10
81321;DHT22;70785;52.570;5.638;2024-03-25T01:28:19;5.40;73.10
81321;DHT22;70785;52.570;5.638;2024-03-25T01:30:45;5.40;73.10
81321;DHT22;70785;52.570;5.638;2024-03-25T01:33:11;5.40;73.20
81321;DHT22;70785;52.570;5.638;2024-03-25T01:35:37;5.40;73.20
81321;DHT22;70785;52.570;5.638;2024-03-25T01:38:03;5.30;73.30
81321;DHT22;70785;52.570;5.638;2024-03-25T01:40:29;5.30;73.40
81321;DHT22;70785;52.570;5.638;2024-03-25T01:45:23;5.10;73.90
81321;DHT22;70785;52.570;5.638;2024-03-25T01:47:50;5.10;74.10
81321;DHT22;70785;52.570;5.638;2024-03-25T01:50:17;5.10;74.20
81321;DHT22;70785;52.570;5.638;2024-03-25T01:52:43;5.10;74.30
81321;DHT22;70785;52.570;5.638;2024-03-25T01:55:21;5.10;74.40
81321;DHT22;70785;52.570;5.638;2024-03-25T01:57:48;5.00;74.50
81321;DHT22;70785;52.570;5.638;2024-03-25T02:00:15;5.10;74.50
81321;DHT22;70785;52.570;5.638;2024-03-25T02:02:45;5.00;74.40
81321;DHT22;70785;52.570;5.638;2024-03-25T02:05:15;5.10;74.50
81321;DHT22;70785;52.570;5.638;2024-03-25T02:07:41;5.00;74.50
81321;DHT22;70785;52.570;5.638;2024-03-25T02:10:09;5.00;74.60
81321;DHT22;70785;52.570;5.638;2024-03-25T02:12:45;5.00;74.60
81321;DHT22;70785;52.570;5.638;2024-03-25T02:15:12;5.00;74.70
81321;DHT22;70785;52.570;5.638;2024-03-25T02:17:41;5.00;74.70
81321;DHT22;70785;52.570;5.638;2024-03-25T02:20:07;5.00;74.80
81321;DHT22;70785;52.570;5.638;2024-03-25T02:22:35;5.00;74.80
81321;DHT22;70785;52.570;5.638;2024-03-25T02:25:09;4.90;74.90
81321;DHT22;70785;52.570;5.638;2024-03-25T02:27:39;4.90;75.10
81321;DHT22;70785;52.570;5.638;2024-03-25T02:30:09;4.90;75.10
81321;DHT22;70785;52.570;5.638;2024-03-25T02:32:39;4.90;75.10
81321;DHT22;70785;52.570;5.638;2024-03-25T02:35:07;4.80;75.00
81321;DHT22;70785;52.570;5.638;2024-03-25T02:37:34;4.80;75.00
81321;DHT22;70785;52.570;5.638;2024-03-25T02:40:01;4.70;75.10
81321;DHT22;70785;52.570;5.638;2024-03-25T02:42:31;4.70;75.20
81321;DHT22;70785;52.570;5.638;2024-03-25T02:44:58;4.80;75.10
81321;DHT22;70785;52.570;5.638;2024-03-25T02:47:25;4.90;75.10
81321;DHT22;70785;52.570;5.638;2024-03-25T02:49:51;5.00;75.00
81321;DHT22;70785;52.570;5.638;2024-03-25T02:52:20;5.00;74.80
81321;DHT22;70785;52.570;5.638;2024-03-25T02:54:47;5.00;74.70
81321;DHT22;70785;52.570;5.638;2024-03-25T02:57:13;5.10;74.70
81321;DHT22;70785;52.570;5.638;2024-03-25T02:59:39;5.20;74.60
81321;DHT22;70785;52.570;5.638;2024-03-25T03:02:05;5.30;74.60
81321;DHT22;70785;52.570;5.638;2024-03-25T03:04:31;5.30;74.60
81321;DHT22;70785;52.570;5.638;2024-03-25T03:06:57;5.30;74.50
81321;DHT22;70785;52.570;5.638;2024-03-25T03:09:24;5.40;74.40
81321;DHT22;70785;52.570;5.638;2024-03-25T03:11:50;5.40;74.30
81321;DHT22;70785;52.570;5.638;2024-03-25T03:14:16;5.50;74.30
81321;DHT22;70785;52.570;5.638;2024-03-25T03:16:42;5.50;74.10
81321;DHT22;70785;52.570;5.638;2024-03-25T03:19:09;5.50;74.00
81321;DHT22;70785;52.570;5.638;2024-03-25T03:21:35;5.60;73.90
81321;DHT22;70785;52.570;5.638;2024-03-25T03:24:03;5.60;73.70
81321;DHT22;70785;52.570;5.638;2024-03-25T03:26:29;5.60;73.70
81321;DHT22;70785;52.570;5.638;2024-03-25T03:28:59;5.70;73.70
81321;DHT22;70785;52.570;5.638;2024-03-25T03:31:26;5.60;73.70
81321;DHT22;70785;52.570;5.638;2024-03-25T03:33:52;5.70;73.70
81321;DHT22;70785;52.570;5.638;2024-03-25T03:36:20;5.60;73.70
81321;DHT22;70785;52.570;5.638;2024-03-25T03:38:46;5.60;73.80
81321;DHT22;70785;52.570;5.638;2024-03-25T03:41:12;5.70;73.90
81321;DHT22;70785;52.570;5.638;2024-03-25T03:43:39;5.70;73.90
81321;DHT22;70785;52.570;5.638;2024-03-25T03:46:05;5.70;73.90
81321;DHT22;70785;52.570;5.638;2024-03-25T03:48:32;5.60;74.00
81321;DHT22;70785;52.570;5.638;2024-03-25T03:50:58;5.70;74.00
81321;DHT22;70785;52.570;5.638;2024-03-25T03:53:24;5.70;74.00
81321;DHT22;70785;52.570;5.638;2024-03-25T03:55:57;5.60;74.10
81321;DHT22;70785;52.570;5.638;2024-03-25T03:58:24;5.60;74.20
81321;DHT22;70785;52.570;5.638;2024-03-25T04:00:51;5.50;74.40
81321;DHT22;70785;52.570;5.638;2024-03-25T04:03:18;5.50;74.50
81321;DHT22;70785;52.570;5.638;2024-03-25T04:05:45;5.50;74.50
81321;DHT22;70785;52.570;5.638;2024-03-25T04:08:11;5.50;74.60
81321;DHT22;70785;52.570;5.638;2024-03-25T04:10:37;5.50;74.60
81321;DHT22;70785;52.570;5.638;2024-03-25T04:13:04;5.30;74.60
81321;DHT22;70785;52.570;5.638;2024-03-25T04:15:34;5.30;74.70
81321;DHT22;70785;52.570;5.638;2024-03-25T04:18:01;5.20;74.70
81321;DHT22;70785;52.570;5.638;2024-03-25T04:20:27;5.10;74.90
81321;DHT22;70785;52.570;5.638;2024-03-25T04:22:56;5.10;74.80
81321;DHT22;70785;52.570;5.638;2024-03-25T04:25:23;5.00;74.80
81321;DHT22;70785;52.570;5.638;2024-03-25T04:27:49;5.00;74.90
81321;DHT22;70785;52.570;5.638;2024-03-25T04:30:15;5.00;74.80
81321;DHT22;70785;52.570;5.638;2024-03-25T04:32:42;5.00;74.70
81321;DHT22;70785;52.570;5.638;2024-03-25T04:35:08;5.00;74.50
81321;DHT22;70785;52.570;5.638;2024-03-25T04:37:35;5.00;74.50
81321;DHT22;70785;52.570;5.638;2024-03-25T04:40:02;5.00;74.40
81321;DHT22;70785;52.570;5.638;2024-03-25T04:42:28;4.90;74.50
81321;DHT22;70785;52.570;5.638;2024-03-25T04:44:54;4.80;74.60
81321;DHT22;70785;52.570;5.638;2024-03-25T04:47:21;4.70;74.80
81321;DHT22;70785;52.570;5.638;2024-03-25T04:49:47;4.70;74.90
81321;DHT22;70785;52.570;5.638;2024-03-25T04:52:14;4.70;75.00
81321;DHT22;70785;52.570;5.638;2024-03-25T04:54:44;4.60;75.10
81321;DHT22;70785;52.570;5.638;2024-03-25T04:57:10;4.50;75.20
81321;DHT22;70785;52.570;5.638;2024-03-25T04:59:37;4.50;75.20
81321;DHT22;70785;52.570;5.638;2024-03-25T05:02:03;4.40;75.30
81321;DHT22;70785;52.570;5.638;2024-03-25T05:04:29;4.40;75.40
81321;DHT22;70785;52.570;5.638;2024-03-25T05:06:55;4.30;75.50
81321;DHT22;70785;52.570;5.638;2024-03-25T05:09:21;4.20;75.70
81321;DHT22;70785;52.570;5.638;2024-03-25T05:11:48;4.10;75.80
81321;DHT22;70785;52.570;5.638;2024-03-25T05:14:14;4.00;76.00
81321;DHT22;70785;52.570;5.638;2024-03-25T05:16:41;4.00;76.10
81321;DHT22;70785;52.570;5.638;2024-03-25T05:19:07;4.00;76.00
81321;DHT22;70785;52.570;5.638;2024-03-25T05:21:33;3.90;76.10
81321;DHT22;70785;52.570;5.638;2024-03-25T05:24:00;3.90;76.20
81321;DHT22;70785;52.570;5.638;2024-03-25T05:26:26;3.80;76.30
81321;DHT22;70785;52.570;5.638;2024-03-25T05:28:56;3.70;76.50
81321;DHT22;70785;52.570;5.638;2024-03-25T05:31:23;3.60;76.50
81321;DHT22;70785;52.570;5.638;2024-03-25T05:33:50;3.60;76.70
81321;DHT22;70785;52.570;5.638;2024-03-25T05:36:16;3.60;76.80
81321;DHT22;70785;52.570;5.638;2024-03-25T05:38:42;3.70;76.90
81321;DHT22;70785;52.570;5.638;2024-03-25T05:41:09;3.80;76.80
81321;DHT22;70785;52.570;5.638;2024-03-25T05:43:36;3.90;76.70
81321;DHT22;70785;52.570;5.638;2024-03-25T05:46:02;3.90;76.70
81321;DHT22;70785;52.570;5.638;2024-03-25T05:48:29;4.00;76.60
81321;DHT22;70785;52.570;5.638;2024-03-25T05:51:04;4.00;76.60
81321;DHT22;70785;52.570;5.638;2024-03-25T05:53:33;4.10;76.60
81321;DHT22;70785;52.570;5.638;2024-03-25T05:56:00;4.20;76.50
81321;DHT22;70785;52.570;5.638;2024-03-25T05:58:29;4.30;76.40
81321;DHT22;70785;52.570;5.638;2024-03-25T06:00:56;4.40;76.40
81321;DHT22;70785;52.570;5.638;2024-03-25T06:03:22;4.50;76.20
81321;DHT22;70785;52.570;5.638;2024-03-25T06:05:48;4.50;76.20
81321;DHT22;70785;52.570;5.638;2024-03-25T06:08:14;4.50;76.10
81321;DHT22;70785;52.570;5.638;2024-03-25T06:10:53;4.50;76.20
81321;DHT22;70785;52.570;5.638;2024-03-25T06:13:20;4.50;76.40
81321;DHT22;70785;52.570;5.638;2024-03-25T06:15:46;4.50;76.50
81321;DHT22;70785;52.570;5.638;2024-03-25T06:18:13;4.50;76.60
81321;DHT22;70785;52.570;5.638;2024-03-25T06:20:39;4.50;76.80
81321;DHT22;70785;52.570;5.638;2024-03-25T06:23:05;4.60;76.80
81321;DHT22;70785;52.570;5.638;2024-03-25T06:25:32;4.60;76.80
81321;DHT22;70785;52.570;5.638;2024-03-25T06:27:59;4.70;76.70
81321;DHT22;70785;52.570;5.638;2024-03-25T06:30:25;4.70;76.70
81321;DHT22;70785;52.570;5.638;2024-03-25T06:33:10;4.70;76.70
81321;DHT22;70785;52.570;5.638;2024-03-25T06:35:54;4.80;76.60
81321;DHT22;70785;52.570;5.638;2024-03-25T06:38:21;4.80;76.60
81321;DHT22;70785;52.570;5.638;2024-03-25T06:40:47;4.90;76.60
81321;DHT22;70785;52.570;5.638;2024-03-25T06:43:13;4.90;76.60
81321;DHT22;70785;52.570;5.638;2024-03-25T06:45:42;4.90;76.60
81321;DHT22;70785;52.570;5.638;2024-03-25T06:48:08;4.90;76.60
81321;DHT22;70785;52.570;5.638;2024-03-25T06:50:34;5.00;76.50
81321;DHT22;70785;52.570;5.638;2024-03-25T06:53:00;5.00;76.50
81321;DHT22;70785;52.570;5.638;2024-03-25T06:55:26;5.00;76.40
81321;DHT22;70785;52.570;5.638;2024-03-25T06:57:54;5.10;76.30
81321;DHT22;70785;52.570;5.638;2024-03-25T07:00:20;5.10;76.30
81321;DHT22;70785;52.570;5.638;2024-03-25T07:02:51;5.20;76.20
81321;DHT22;70785;52.570;5.638;2024-03-25T07:05:17;5.30;76.20
81321;DHT22;70785;52.570;5.638;2024-03-25T07:07:43;5.30;76.10
81321;DHT22;70785;52.570;5.638;2024-03-25T07:10:09;5.40;76.00
81321;DHT22;70785;52.570;5.638;2024-03-25T07:12:35;5.50;75.90
81321;DHT22;70785;52.570;5.638;2024-03-25T07:15:01;5.50;75.80
81321;DHT22;70785;52.570;5.638;2024-03-25T07:17:27;5.60;75.80
81321;DHT22;70785;52.570;5.638;2024-03-25T07:19:53;5.60;75.70
81321;DHT22;70785;52.570;5.638;2024-03-25T07:22:19;5.80;75.70
81321;DHT22;70785;52.570;5.638;2024-03-25T07:24:45;5.80;75.50
81321;DHT22;70785;52.570;5.638;2024-03-25T07:27:12;5.90;75.40
81321;DHT22;70785;52.570;5.638;2024-03-25T07:29:38;6.00;75.40
81321;DHT22;70785;52.570;5.638;2024-03-25T07:32:04;6.10;75.20
81321;DHT22;70785;52.570;5.638;2024-03-25T07:34:31;6.20;75.20
81321;DHT22;70785;52.570;5.638;2024-03-25T07:36:57;6.20;75.10
81321;DHT22;70785;52.570;5.638;2024-03-25T07:39:23;6.30;75.00
81321;DHT22;70785;52.570;5.638;2024-03-25T07:41:53;6.40;75.00
81321;DHT22;70785;52.570;5.638;2024-03-25T07:44:19;6.50;74.90
81321;DHT22;70785;52.570;5.638;2024-03-25T07:46:46;6.60;74.90
81321;DHT22;70785;52.570;5.638;2024-03-25T07:49:12;6.70;74.80
81321;DHT22;70785;52.570;5.638;2024-03-25T07:51:39;6.90;74.70
81321;DHT22;70785;52.570;5.638;2024-03-25T07:54:05;7.00;74.70
81321;DHT22;70785;52.570;5.638;2024-03-25T07:56:32;7.00;74.50
81321;DHT22;70785;52.570;5.638;2024-03-25T07:59:03;7.00;74.50
81321;DHT22;70785;52.570;5.638;2024-03-25T08:01:29;7.20;74.50
81321;DHT22;70785;52.570;5.638;2024-03-25T08:03:56;7.20;74.30
81321;DHT22;70785;52.570;5.638;2024-03-25T08:06:22;7.20;74.30
81321;DHT22;70785;52.570;5.638;2024-03-25T08:08:48;7.20;74.20
81321;DHT22;70785;52.570;5.638;2024-03-25T08:11:15;7.20;74.30
81321;DHT22;70785;52.570;5.638;2024-03-25T08:13:41;7.10;74.40
81321;DHT22;70785;52.570;5.638;2024-03-25T08:16:07;7.10;74.40
81321;DHT22;70785;52.570;5.638;2024-03-25T08:18:33;7.20;74.40
81321;DHT22;70785;52.570;5.638;2024-03-25T08:21:00;7.30;74.30
81321;DHT22;70785;52.570;5.638;2024-03-25T08:23:26;7.50;73.90
81321;DHT22;70785;52.570;5.638;2024-03-25T08:25:52;7.80;73.50
81321;DHT22;70785;52.570;5.638;2024-03-25T08:28:18;8.20;73.20
81321;DHT22;70785;52.570;5.638;2024-03-25T08:30:44;8.50;72.70
81321;DHT22;70785;52.570;5.638;2024-03-25T08:33:10;8.60;72.40
81321;DHT22;70785;52.570;5.638;2024-03-25T08:35:37;8.80;72.30
81321;DHT22;70785;52.570;5.638;2024-03-25T08:38:04;8.90;72.30
81321;DHT22;70785;52.570;5.638;2024-03-25T08:40:30;9.00;72.10
81321;DHT22;70785;52.570;5.638;2024-03-25T08:42:56;9.10;71.80
81321;DHT22;70785;52.570;5.638;2024-03-25T08:45:22;9.10;71.50
81321;DHT22;70785;52.570;5.638;2024-03-25T08:47:48;9.10;71.30
81321;DHT22;70785;52.570;5.638;2024-03-25T08:50:14;9.10;71.00
81321;DHT22;70785;52.570;5.638;2024-03-25T08:52:40;9.00;70.90
81321;DHT22;70785;52.570;5.638;2024-03-25T08:55:06;9.00;70.50
81321;DHT22;70785;52.570;5.638;2024-03-25T08:57:33;9.10;69.90
81321;DHT22;70785;52.570;5.638;2024-03-25T08:59:59;9.20;69.80
81321;DHT22;70785;52.570;5.638;2024-03-25T09:02:25;9.20;69.50
81321;DHT22;70785;52.570;5.638;2024-03-25T09:04:51;9.20;69.40
81321;DHT22;70785;52.570;5.638;2024-03-25T09:07:18;9.00;69.00
81321;DHT22;70785;52.570;5.638;2024-03-25T09:09:44;8.90;68.70
81321;DHT22;70785;52.570;5.638;2024-03-25T09:12:30;8.70;68.60
81321;DHT22;70785;52.570;5.638;2024-03-25T09:14:56;8.70;68.80
81321;DHT22;70785;52.570;5.638;2024-03-25T09:17:22;8.70;68.70
81321;DHT22;70785;52.570;5.638;2024-03-25T09:19:50;8.60;68.70
81321;DHT22;70785;52.570;5.638;2024-03-25T09:22:17;8.60;68.20
81321;DHT22;70785;52.570;5.638;2024-03-25T09:24:43;8.60;68.10
81321;DHT22;70785;52.570;5.638;2024-03-25T09:27:11;8.60;67.90
81321;DHT22;70785;52.570;5.638;2024-03-25T09:29:37;8.70;67.70
81321;DHT22;70785;52.570;5.638;2024-03-25T09:32:03;8.90;67.50
81321;DHT22;70785;52.570;5.638;2024-03-25T09:34:29;9.00;67.20
81321;DHT22;70785;52.570;5.638;2024-03-25T09:36:55;9.20;66.90
81321;DHT22;70785;52.570;5.638;2024-03-25T09:39:22;9.50;66.50
81321;DHT22;70785;52.570;5.638;2024-03-25T09:41:49;9.60;66.10
81321;DHT22;70785;52.570;5.638;2024-03-25T09:44:18;9.70;65.40
81321;DHT22;70785;52.570;5.638;2024-03-25T09:46:45;9.60;64.90
81321;DHT22;70785;52.570;5.638;2024-03-25T09:49:11;9.60;64.60
81321;DHT22;70785;52.570;5.638;2024-03-25T09:51:37;9.70;64.60
81321;DHT22;70785;52.570;5.638;2024-03-25T09:54:03;10.00;64.40
81321;DHT22;70785;52.570;5.638;2024-03-25T09:56:31;10.10;64.20
81321;DHT22;70785;52.570;5.638;2024-03-25T09:58:58;10.30;63.70
81321;DHT22;70785;52.570;5.638;2024-03-25T10:01:24;10.40;63.20
81321;DHT22;70785;52.570;5.638;2024-03-25T10:03:51;10.60;63.10
81321;DHT22;70785;52.570;5.638;2024-03-25T10:06:17;10.60;62.80
81321;DHT22;70785;52.570;5.638;2024-03-25T10:08:45;10.60;62.40
81321;DHT22;70785;52.570;5.638;2024-03-25T10:11:11;10.50;62.20
81321;DHT22;70785;52.570;5.638;2024-03-25T10:13:37;10.40;62.00
81321;DHT22;70785;52.570;5.638;2024-03-25T10:16:07;10.40;61.60
81321;DHT22;70785;52.570;5.638;2024-03-25T10:18:33;10.40;61.00
81321;DHT22;70785;52.570;5.638;2024-03-25T10:20:59;10.30;60.90
81321;DHT22;70785;52.570;5.638;2024-03-25T10:23:26;10.30;60.80
81321;DHT22;70785;52.570;5.638;2024-03-25T10:25:53;10.30;59.80
81321;DHT22;70785;52.570;5.638;2024-03-25T10:28:19;10.20;59.90
81321;DHT22;70785;52.570;5.638;2024-03-25T10:30:46;10.20;60.50
81321;DHT22;70785;52.570;5.638;2024-03-25T10:33:12;10.30;60.50
81321;DHT22;70785;52.570;5.638;2024-03-25T10:35:40;10.50;60.50
81321;DHT22;70785;52.570;5.638;2024-03-25T10:38:08;10.50;60.40
81321;DHT22;70785;52.570;5.638;2024-03-25T10:40:38;10.50;60.40
81321;DHT22;70785;52.570;5.638;2024-03-25T10:43:06;10.60;60.70
81321;DHT22;70785;52.570;5.638;2024-03-25T10:45:34;10.80;60.80
81321;DHT22;70785;52.570;5.638;2024-03-25T10:50:35;11.10;60.70
81321;DHT22;70785;52.570;5.638;2024-03-25T10:53:02;11.10;60.90
81321;DHT22;70785;52.570;5.638;2024-03-25T10:55:31;11.30;61.10
81321;DHT22;70785;52.570;5.638;2024-03-25T10:58:00;11.40;61.40
81321;DHT22;70785;52.570;5.638;2024-03-25T11:00:26;11.60;61.10
81321;DHT22;70785;52.570;5.638;2024-03-25T11:02:53;11.70;61.00
81321;DHT22;70785;52.570;5.638;2024-03-25T11:05:20;11.70;61.00
81321;DHT22;70785;52.570;5.638;2024-03-25T11:07:46;11.90;61.00
81321;DHT22;70785;52.570;5.638;2024-03-25T11:10:13;12.00;60.80
81321;DHT22;70785;52.570;5.638;2024-03-25T11:12:42;12.00;60.50
81321;DHT22;70785;52.570;5.638;2024-03-25T11:15:09;12.00;60.50
81321;DHT22;70785;52.570;5.638;2024-03-25T11:17:36;12.10;60.40
81321;DHT22;70785;52.570;5.638;2024-03-25T11:20:15;12.00;59.80
81321;DHT22;70785;52.570;5.638;2024-03-25T11:22:52;11.90;59.50
81321;DHT22;70785;52.570;5.638;2024-03-25T11:25:20;11.90;59.80
81321;DHT22;70785;52.570;5.638;2024-03-25T11:27:47;12.00;59.90
81321;DHT22;70785;52.570;5.638;2024-03-25T11:30:14;12.10;59.80
81321;DHT22;70785;52.570;5.638;2024-03-25T11:32:46;12.10;59.50
81321;DHT22;70785;52.570;5.638;2024-03-25T11:35:12;12.00;59.20
81321;DHT22;70785;52.570;5.638;2024-03-25T11:37:41;12.00;59.20
81321;DHT22;70785;52.570;5.638;2024-03-25T11:40:08;12.20;59.30
81321;DHT22;70785;52.570;5.638;2024-03-25T11:42:41;12.30;59.20
81321;DHT22;70785;52.570;5.638;2024-03-25T11:45:20;12.40;59.00
81321;DHT22;70785;52.570;5.638;2024-03-25T11:47:48;12.50;58.70
81321;DHT22;70785;52.570;5.638;2024-03-25T11:50:16;12.50;58.90
81321;DHT22;70785;52.570;5.638;2024-03-25T11:52:43;12.50;58.70
81321;DHT22;70785;52.570;5.638;2024-03-25T11:55:09;12.70;58.60
81321;DHT22;70785;52.570;5.638;2024-03-25T11:57:36;12.70;58.30
81321;DHT22;70785;52.570;5.638;2024-03-25T12:00:03;12.80;58.20
81321;DHT22;70785;52.570;5.638;2024-03-25T12:02:43;12.90;58.20
81321;DHT22;70785;52.570;5.638;2024-03-25T12:05:11;12.90;57.90
81321;DHT22;70785;52.570;5.638;2024-03-25T12:07:37;12.90;57.80
81321;DHT22;70785;52.570;5.638;2024-03-25T12:10:04;12.80;57.90
81321;DHT22;70785;52.570;5.638;2024-03-25T12:12:48;12.70;57.80
81321;DHT22;70785;52.570;5.638;2024-03-25T12:15:20;12.70;57.90
81321;DHT22;70785;52.570;5.638;2024-03-25T12:17:48;12.80;57.70
81321;DHT22;70785;52.570;5.638;2024-03-25T12:20:17;13.00;57.50
81321;DHT22;70785;52.570;5.638;2024-03-25T12:22:44;13.20;57.40
81321;DHT22;70785;52.570;5.638;2024-03-25T12:25:10;13.40;56.60
81321;DHT22;70785;52.570;5.638;2024-03-25T12:27:37;13.40;56.20
81321;DHT22;70785;52.570;5.638;2024-03-25T12:30:05;13.50;56.30
81321;DHT22;70785;52.570;5.638;2024-03-25T12:35:02;13.30;55.30
81321;DHT22;70785;52.570;5.638;2024-03-25T12:37:31;13.10;55.60
81321;DHT22;70785;52.570;5.638;2024-03-25T12:39:57;13.00;55.30
81321;DHT22;70785;52.570;5.638;2024-03-25T12:42:25;13.00;54.80
81321;DHT22;70785;52.570;5.638;2024-03-25T12:44:53;13.10;55.00
81321;DHT22;70785;52.570;5.638;2024-03-25T12:47:20;13.10;55.30
81321;DHT22;70785;52.570;5.638;2024-03-25T12:49:46;13.20;55.40
81321;DHT22;70785;52.570;5.638;2024-03-25T12:52:12;13.10;55.30
81321;DHT22;70785;52.570;5.638;2024-03-25T12:54:38;13.10;55.30
81321;DHT22;70785;52.570;5.638;2024-03-25T12:57:05;13.10;55.40
81321;DHT22;70785;52.570;5.638;2024-03-25T12:59:31;13.00;55.30
81321;DHT22;70785;52.570;5.638;2024-03-25T13:01:57;12.80;55.20
81321;DHT22;70785;52.570;5.638;2024-03-25T13:04:23;12.70;55.40
81321;DHT22;70785;52.570;5.638;2024-03-25T13:06:50;12.50;55.50
81321;DHT22;70785;52.570;5.638;2024-03-25T13:09:17;12.50;55.60
81321;DHT22;70785;52.570;5.638;2024-03-25T13:11:43;12.50;55.70
81321;DHT22;70785;52.570;5.638;2024-03-25T13:14:13;12.50;55.80
81321;DHT22;70785;52.570;5.638;2024-03-25T13:16:41;12.60;55.60
81321;DHT22;70785;52.570;5.638;2024-03-25T13:19:07;12.60;55.50
81321;DHT22;70785;52.570;5.638;2024-03-25T13:21:34;12.50;55.20
81321;DHT22;70785;52.570;5.638;2024-03-25T13:24:00;12.30;55.20
81321;DHT22;70785;52.570;5.638;2024-03-25T13:26:26;12.10;55.20
81321;DHT22;70785;52.570;5.638;2024-03-25T13:28:53;12.10;55.10
81321;DHT22;70785;52.570;5.638;2024-03-25T13:31:21;12.00;55.00
81321;DHT22;70785;52.570;5.638;2024-03-25T13:33:47;12.00;55.20
81321;DHT22;70785;52.570;5.638;2024-03-25T13:36:13;12.00;55.20
81321;DHT22;70785;52.570;5.638;2024-03-25T13:38:39;12.00;55.00
81321;DHT22;70785;52.570;5.638;2024-03-25T13:41:05;12.00;55.00
81321;DHT22;70785;52.570;5.638;2024-03-25T13:43:32;11.90;55.00
81321;DHT22;70785;52.570;5.638;2024-03-25T13:45:58;11.90;55.00
81321;DHT22;70785;52.570;5.638;2024-03-25T13:48:24;11.80;54.50
81321;DHT22;70785;52.570;5.638;2024-03-25T13:50:53;11.70;54.50
81321;DHT22;70785;52.570;5.638;2024-03-25T13:53:20;11.70;53.70
81321;DHT22;70785;52.570;5.638;2024-03-25T13:55:46;11.60;54.00
81321;DHT22;70785;52.570;5.638;2024-03-25T13:58:13;11.50;54.20
81321;DHT22;70785;52.570;5.638;2024-03-25T14:00:39;11.60;54.60
81321;DHT22;70785;52.570;5.638;2024-03-25T14:03:05;12.00;55.20
81321;DHT22;70785;52.570;5.638;2024-03-25T14:05:31;12.80;55.30
81321;DHT22;70785;52.570;5.638;2024-03-25T14:07:57;13.40;55.60
81321;DHT22;70785;52.570;5.638;2024-03-25T14:10:23;14.00;56.10
81321;DHT22;70785;52.570;5.638;2024-03-25T14:12:50;14.80;55.90
81321;DHT22;70785;52.570;5.638;2024-03-25T14:15:16;15.40;56.00
81321;DHT22;70785;52.570;5.638;2024-03-25T14:17:42;16.00;55.30
81321;DHT22;70785;52.570;5.638;2024-03-25T14:20:09;16.40;54.90
81321;DHT22;70785;52.570;5.638;2024-03-25T14:22:36;16.90;54.30
81321;DHT22;70785;52.570;5.638;2024-03-25T14:25:02;17.50;53.50
81321;DHT22;70785;52.570;5.638;2024-03-25T14:27:29;18.00;52.90
81321;DHT22;70785;52.570;5.638;2024-03-25T14:29:55;18.50;52.20
81321;DHT22;70785;52.570;5.638;2024-03-25T14:32:22;18.70;50.20
81321;DHT22;70785;52.570;5.638;2024-03-25T14:34:48;18.10;48.50
81321;DHT22;70785;52.570;5.638;2024-03-25T14:37:15;17.40;48.60
81321;DHT22;70785;52.570;5.638;2024-03-25T14:39:41;16.80;48.40
81321;DHT22;70785;52.570;5.638;2024-03-25T14:42:08;16.30;48.60
81321;DHT22;70785;52.570;5.638;2024-03-25T14:44:36;16.00;48.60
81321;DHT22;70785;52.570;5.638;2024-03-25T14:47:03;15.70;48.70
81321;DHT22;70785;52.570;5.638;2024-03-25T14:49:30;15.60;48.70
81321;DHT22;70785;52.570;5.638;2024-03-25T14:51:56;15.60;49.20
81321;DHT22;70785;52.570;5.638;2024-03-25T14:54:23;16.00;49.70
81321;DHT22;70785;52.570;5.638;2024-03-25T14:56:49;16.50;49.10
81321;DHT22;70785;52.570;5.638;2024-03-25T14:59:15;16.90;48.70
81321;DHT22;70785;52.570;5.638;2024-03-25T15:01:41;17.20;48.20
81321;DHT22;70785;52.570;5.638;2024-03-25T15:04:07;17.50;47.30
81321;DHT22;70785;52.570;5.638;2024-03-25T15:06:34;17.50;47.00
81321;DHT22;70785;52.570;5.638;2024-03-25T15:09:02;17.60;46.10
81321;DHT22;70785;52.570;5.638;2024-03-25T15:11:29;17.70;45.20
81321;DHT22;70785;52.570;5.638;2024-03-25T15:13:56;17.60;45.80
81321;DHT22;70785;52.570;5.638;2024-03-25T15:16:22;17.90;46.30
81321;DHT22;70785;52.570;5.638;2024-03-25T15:18:48;18.30;46.10
81321;DHT22;70785;52.570;5.638;2024-03-25T15:21:14;18.60;45.60
81321;DHT22;70785;52.570;5.638;2024-03-25T15:23:40;18.60;45.20
81321;DHT22;70785;52.570;5.638;2024-03-25T15:26:06;18.40;44.90
81321;DHT22;70785;52.570;5.638;2024-03-25T15:28:32;18.50;44.40
81321;DHT22;70785;52.570;5.638;2024-03-25T15:30:59;18.60;44.00
81321;DHT22;70785;52.570;5.638;2024-03-25T15:33:26;18.70;43.70
81321;DHT22;70785;52.570;5.638;2024-03-25T15:35:53;18.30;43.60
81321;DHT22;70785;52.570;5.638;2024-03-25T15:38:19;18.00;43.50
81321;DHT22;70785;52.570;5.638;2024-03-25T15:40:46;17.80;42.70
81321;DHT22;70785;52.570;5.638;2024-03-25T15:43:20;17.40;42.90
81321;DHT22;70785;52.570;5.638;2024-03-25T15:45:59;17.00;43.30